createdAt,value
2022-09-06T00:01:50.800Z,98484.91
2022-09-06T00:04:40.027Z,98476.59
2022-09-06T00:07:29.572Z,98482.50
2022-09-06T00:10:18.938Z,98475.47
2022-09-06T00:13:11.803Z,98480.38
2022-09-06T00:16:07.102Z,98489.75
2022-09-06T00:18:57.325Z,98490.09
2022-09-06T00:21:46.449Z,98482.25
2022-09-06T00:24:37.165Z,98485.09
2022-09-06T00:27:26.446Z,98489.16
2022-09-06T00:30:17.234Z,98493.22
2022-09-06T00:33:06.484Z,98495.25
2022-09-06T00:36:01.392Z,98491.75
2022-09-06T00:38:50.792Z,98490.59
2022-09-06T00:41:40.121Z,98496.31
2022-09-06T00:44:29.457Z,98492.66
2022-09-06T00:47:20.777Z,98489.31
2022-09-06T00:50:15.834Z,98495.84
2022-09-06T00:53:05.582Z,98490.88
2022-09-06T00:55:55.128Z,98484.66
2022-09-06T00:58:44.909Z,98495.38
2022-09-06T01:01:34.221Z,98500.44
2022-09-06T01:04:26.118Z,98492.09
2022-09-06T01:07:33.652Z,98494.78
2022-09-06T01:10:46.885Z,98491.44
2022-09-06T01:13:49.817Z,98494.47
2022-09-06T01:16:47.132Z,98503.88
2022-09-06T01:20:23.157Z,98504.06
2022-09-06T01:24:28.875Z,98501.09
2022-09-06T01:27:51.689Z,98501.81
2022-09-06T01:30:52.489Z,98499.31
2022-09-06T01:33:51.852Z,98500.50
2022-09-06T01:37:08.858Z,98500.69
2022-09-06T01:39:59.427Z,98495.31
2022-09-06T01:42:53.192Z,98503.34
2022-09-06T01:45:58.194Z,98507.38
2022-09-06T01:49:14.681Z,98506.72
2022-09-06T01:52:15.557Z,98508.19
2022-09-06T01:55:23.242Z,98509.41
2022-09-06T01:58:40.757Z,98506.91
2022-09-06T02:01:39.869Z,98502.25
2022-09-06T02:04:38.701Z,98503.91
2022-09-06T02:07:31.787Z,98503.44
2022-09-06T02:10:27.964Z,98497.06
2022-09-06T02:13:23.172Z,98496.41
2022-09-06T02:16:21.372Z,98490.59
2022-09-06T02:19:19.246Z,98497.94
2022-09-06T02:22:14.087Z,98491.75
2022-09-06T02:25:08.480Z,98485.75
2022-09-06T02:27:58.216Z,98485.44
2022-09-06T02:30:57.086Z,98488.13
2022-09-06T02:33:49.079Z,98499.84
2022-09-06T02:36:39.435Z,98488.63
2022-09-06T02:39:28.696Z,98487.81
2022-09-06T02:42:18.504Z,98487.50
2022-09-06T02:45:08.929Z,98486.03
2022-09-06T02:47:59.410Z,98488.84
2022-09-06T02:50:48.541Z,98486.50
2022-09-06T02:53:37.844Z,98485.84
2022-09-06T02:56:26.977Z,98482.16
2022-09-06T02:59:16.206Z,98487.88
2022-09-06T03:02:05.378Z,98491.53
2022-09-06T03:04:55.906Z,98493.91
2022-09-06T03:07:45.202Z,98482.72
2022-09-06T03:10:34.331Z,98482.22
2022-09-06T03:13:24.934Z,98481.06
2022-09-06T03:16:14.380Z,98487.91
2022-09-06T03:19:03.608Z,98483.22
2022-09-06T03:21:54.317Z,98486.59
2022-09-06T03:24:43.544Z,98489.28
2022-09-06T03:27:34.127Z,98488.63
2022-09-06T03:30:23.278Z,98490.63
2022-09-06T03:33:12.859Z,98488.97
2022-09-06T03:36:04.061Z,98481.94
2022-09-06T03:38:54.979Z,98482.28
2022-09-06T03:41:44.194Z,98474.75
2022-09-06T03:44:33.988Z,98483.63
2022-09-06T03:47:23.308Z,98474.94
2022-09-06T03:50:13.038Z,98472.59
2022-09-06T03:53:02.272Z,98470.44
2022-09-06T03:55:57.552Z,98475.28
2022-09-06T03:58:47.184Z,98472.25
2022-09-06T04:01:36.467Z,98469.59
2022-09-06T04:04:26.045Z,98474.94
2022-09-06T04:07:15.253Z,98477.59
2022-09-06T04:10:04.948Z,98467.94
2022-09-06T04:12:55.711Z,98465.44
2022-09-06T04:15:47.754Z,98468.56
2022-09-06T04:18:37.257Z,98467.41
2022-09-06T04:21:26.562Z,98472.44
2022-09-06T04:24:15.797Z,98465.56
2022-09-06T04:27:05.418Z,98453.22
2022-09-06T04:29:56.616Z,98462.25
2022-09-06T04:32:45.774Z,98454.53
2022-09-06T04:35:34.879Z,98457.88
2022-09-06T04:38:25.507Z,98458.84
2022-09-06T04:41:18.812Z,98470.53
2022-09-06T04:44:07.924Z,98472.72
2022-09-06T04:47:09.880Z,98486.19
2022-09-06T04:49:59.026Z,98488.00
2022-09-06T04:52:48.132Z,98498.38
2022-09-06T04:55:37.753Z,98496.84
2022-09-06T04:58:27.081Z,98496.19
2022-09-06T05:01:16.498Z,98480.34
2022-09-06T05:04:07.007Z,98475.44
2022-09-06T05:07:03.491Z,98474.63
2022-09-06T05:09:52.800Z,98486.06
2022-09-06T05:12:44.379Z,98490.16
2022-09-06T05:15:33.685Z,98496.91
2022-09-06T05:18:22.769Z,98492.56
2022-09-06T05:21:13.432Z,98503.09
2022-09-06T05:24:02.831Z,98521.47
2022-09-06T05:26:51.994Z,98518.63
2022-09-06T05:29:41.180Z,98520.84
2022-09-06T05:32:30.303Z,98523.22
2022-09-06T05:35:19.433Z,98535.34
2022-09-06T05:38:09.923Z,98538.81
2022-09-06T05:40:59.116Z,98534.06
2022-09-06T05:43:48.725Z,98546.19
2022-09-06T05:46:45.114Z,98540.75
2022-09-06T05:49:34.307Z,98552.41
2022-09-06T05:52:23.459Z,98546.97
2022-09-06T05:55:14.081Z,98550.03
2022-09-06T05:58:03.262Z,98539.06
2022-09-06T06:00:52.427Z,98542.00
2022-09-06T06:03:41.719Z,98542.09
2022-09-06T06:06:33.608Z,98534.91
2022-09-06T06:09:22.848Z,98515.16
2022-09-06T06:12:13.497Z,98505.09
2022-09-06T06:15:02.744Z,98505.69
2022-09-06T06:17:52.018Z,98514.13
2022-09-06T06:20:41.296Z,98508.53
2022-09-06T06:23:30.449Z,98508.69
2022-09-06T06:26:20.262Z,98501.13
2022-09-06T06:29:10.930Z,98511.72
2022-09-06T06:32:00.224Z,98510.22
2022-09-06T06:34:49.616Z,98496.00
2022-09-06T06:37:38.855Z,98491.75
2022-09-06T06:40:28.045Z,98491.44
2022-09-06T06:43:17.352Z,98483.66
2022-09-06T06:46:11.287Z,98477.09
2022-09-06T06:49:00.785Z,98467.41
2022-09-06T06:51:49.945Z,98469.91
2022-09-06T06:54:39.461Z,98472.25
2022-09-06T06:57:28.869Z,98474.63
2022-09-06T07:00:18.614Z,98463.75
2022-09-06T07:03:09.739Z,98456.72
2022-09-06T07:06:14.370Z,98462.56
2022-09-06T07:09:03.692Z,98460.91
2022-09-06T07:11:52.924Z,98458.06
2022-09-06T07:14:42.156Z,98462.84
2022-09-06T07:17:31.446Z,98460.13
2022-09-06T07:20:22.526Z,98462.59
2022-09-06T07:26:24.473Z,98462.56
2022-09-06T07:29:13.678Z,98445.94
2022-09-06T07:34:59.260Z,98443.41
2022-09-06T07:37:56.624Z,98445.22
2022-09-06T07:40:54.981Z,98441.66
2022-09-06T07:43:44.688Z,98433.28
2022-09-06T07:46:34.046Z,98443.16
2022-09-06T07:49:23.377Z,98443.69
2022-09-06T07:55:23.390Z,98447.53
2022-09-06T07:58:12.593Z,98441.47
2022-09-06T08:01:28.286Z,98436.16
2022-09-06T08:04:17.560Z,98441.28
2022-09-06T08:10:18.433Z,98447.91
2022-09-06T08:13:09.353Z,98442.78
2022-09-06T08:16:00.787Z,98449.63
2022-09-06T08:18:53.492Z,98446.09
2022-09-06T08:21:42.918Z,98438.53
2022-09-06T08:24:35.649Z,98439.41
2022-09-06T08:27:25.313Z,98434.22
2022-09-06T08:30:16.121Z,98431.66
2022-09-06T08:33:05.506Z,98442.03
2022-09-06T08:35:58.615Z,98441.44
2022-09-06T08:38:47.844Z,98435.91
2022-09-06T08:41:49.829Z,98440.34
2022-09-06T08:44:59.990Z,98435.25
2022-09-06T08:47:52.449Z,98445.16
2022-09-06T08:50:44.111Z,98442.81
2022-09-06T08:53:38.277Z,98429.56
2022-09-06T08:56:35.905Z,98430.28
2022-09-06T08:59:25.228Z,98437.72
2022-09-06T09:02:19.106Z,98433.78
2022-09-06T09:05:24.306Z,98440.09
2022-09-06T09:08:25.594Z,98440.66
2022-09-06T09:11:20.003Z,98435.81
2022-09-06T09:14:18.454Z,98413.63
2022-09-06T09:17:20.344Z,98417.97
2022-09-06T09:20:11.636Z,98411.09
2022-09-06T09:23:00.813Z,98400.31
2022-09-06T09:25:53.490Z,98400.50
2022-09-06T09:29:04.923Z,98403.63
2022-09-06T09:31:56.545Z,98396.06
2022-09-06T09:34:45.892Z,98397.34
2022-09-06T09:37:55.393Z,98385.53
2022-09-06T09:40:53.707Z,98386.66
2022-09-06T09:44:01.090Z,98379.66
2022-09-06T09:46:52.983Z,98372.69
2022-09-06T09:49:42.165Z,98374.13
2022-09-06T09:52:33.017Z,98361.75
2022-09-06T09:55:27.048Z,98370.25
2022-09-06T09:58:31.557Z,98366.88
2022-09-06T10:01:27.208Z,98357.78
2022-09-06T10:07:34.814Z,98359.66
2022-09-06T10:10:28.163Z,98351.03
2022-09-06T10:13:23.002Z,98343.84
2022-09-06T10:16:12.388Z,98349.66
2022-09-06T10:19:01.810Z,98343.34
2022-09-06T10:21:57.700Z,98343.94
2022-09-06T10:25:09.321Z,98343.06
2022-09-06T10:28:34.402Z,98329.66
2022-09-06T10:32:02.247Z,98334.84
2022-09-06T10:35:11.365Z,98336.88
2022-09-06T10:38:27.599Z,98343.97
2022-09-06T10:41:39.185Z,98333.94
2022-09-06T10:44:51.908Z,98329.97
2022-09-06T10:47:56.097Z,98324.66
2022-09-06T10:50:52.989Z,98321.16
2022-09-06T10:53:49.539Z,98308.50
2022-09-06T10:56:44.596Z,98307.34
2022-09-06T10:59:40.341Z,98301.84
2022-09-06T11:02:40.572Z,98296.22
2022-09-06T11:08:53.458Z,98294.16
2022-09-06T11:11:51.935Z,98303.66
2022-09-06T11:14:43.331Z,98302.78
2022-09-06T11:17:41.155Z,98302.56
2022-09-06T11:20:40.584Z,98292.06
2022-09-06T11:23:52.861Z,98292.06
2022-09-06T11:26:56.960Z,98287.38
2022-09-06T11:29:56.288Z,98278.16
2022-09-06T11:32:50.058Z,98286.00
2022-09-06T11:35:43.347Z,98281.72
2022-09-06T11:38:32.548Z,98278.47
2022-09-06T11:41:21.951Z,98261.97
2022-09-06T11:44:12.334Z,98268.06
2022-09-06T11:47:07.673Z,98266.22
2022-09-06T11:49:56.829Z,98259.91
2022-09-06T11:53:15.906Z,98257.88
2022-09-06T11:56:17.943Z,98259.63
2022-09-06T11:59:14.361Z,98252.03
2022-09-06T12:02:10.001Z,98260.31
2022-09-06T12:05:30.558Z,98250.91
2022-09-06T12:08:35.528Z,98259.88
2022-09-06T12:11:37.953Z,98255.41
2022-09-06T12:14:36.184Z,98257.81
2022-09-06T12:17:27.697Z,98251.03
2022-09-06T12:20:51.086Z,98254.56
2022-09-06T12:23:46.125Z,98258.75
2022-09-06T12:26:55.569Z,98256.25
2022-09-06T12:29:59.500Z,98253.28
2022-09-06T12:32:52.538Z,98240.84
2022-09-06T12:36:18.679Z,98246.22
2022-09-06T12:39:13.095Z,98241.13
2022-09-06T12:42:06.500Z,98244.25
2022-09-06T12:44:56.938Z,98239.16
2022-09-06T12:47:49.469Z,98228.75
2022-09-06T12:50:41.674Z,98233.09
2022-09-06T12:53:31.773Z,98226.66
2022-09-06T12:56:24.126Z,98223.38
2022-09-06T12:59:20.291Z,98223.38
2022-09-06T13:02:20.277Z,98219.78
2022-09-06T13:05:14.641Z,98215.19
2022-09-06T13:08:05.649Z,98217.38
2022-09-06T13:10:55.729Z,98221.13
2022-09-06T13:13:51.720Z,98208.59
2022-09-06T13:16:48.386Z,98210.59
2022-09-06T13:19:40.365Z,98206.31
2022-09-06T13:22:43.555Z,98197.78
2022-09-06T13:25:34.505Z,98202.50
2022-09-06T13:28:29.425Z,98204.06
2022-09-06T13:31:22.909Z,98194.00
2022-09-06T13:34:12.037Z,98190.31
2022-09-06T13:37:05.193Z,98178.13
2022-09-06T13:39:54.794Z,98177.09
2022-09-06T13:42:45.390Z,98179.06
2022-09-06T13:45:34.650Z,98182.59
2022-09-06T13:48:29.041Z,98180.16
2022-09-06T13:51:19.212Z,98173.22
2022-09-06T13:54:10.730Z,98168.69
2022-09-06T13:57:01.684Z,98170.84
2022-09-06T13:59:52.127Z,98164.03
2022-09-06T14:02:42.884Z,98173.47
2022-09-06T14:05:32.006Z,98159.88
2022-09-06T14:08:21.227Z,98173.06
2022-09-06T14:11:10.600Z,98173.06
2022-09-06T14:13:59.840Z,98169.91
2022-09-06T14:16:50.945Z,98166.72
2022-09-06T14:19:41.443Z,98174.38
2022-09-06T14:22:30.688Z,98165.88
2022-09-06T14:25:19.887Z,98166.91
2022-09-06T14:28:09.245Z,98165.00
2022-09-06T14:30:58.497Z,98165.06
2022-09-06T14:33:50.003Z,98154.47
2022-09-06T14:36:40.053Z,98147.59
2022-09-06T14:39:29.335Z,98150.41
2022-09-06T14:42:20.491Z,98143.06
2022-09-06T14:45:10.970Z,98142.59
2022-09-06T14:48:00.236Z,98136.09
2022-09-06T14:50:50.937Z,98142.03
2022-09-06T14:53:41.275Z,98136.59
2022-09-06T14:56:31.022Z,98130.97
2022-09-06T14:59:20.301Z,98125.47
2022-09-06T15:02:09.687Z,98125.78
2022-09-06T15:04:58.967Z,98119.03
2022-09-06T15:07:49.691Z,98112.53
2022-09-06T15:10:39.082Z,98120.16
2022-09-06T15:13:29.004Z,98111.97
2022-09-06T15:16:18.305Z,98113.28
2022-09-06T15:19:08.914Z,98110.09
2022-09-06T15:21:58.789Z,98103.97
2022-09-06T15:24:50.392Z,98106.78
2022-09-06T15:27:39.676Z,98101.25
2022-09-06T15:30:28.869Z,98101.16
2022-09-06T15:33:19.245Z,98107.25
2022-09-06T15:36:10.856Z,98104.47
2022-09-06T15:39:02.527Z,98095.09
2022-09-06T15:41:53.345Z,98100.28
2022-09-06T15:44:42.905Z,98098.78
2022-09-06T15:47:35.284Z,98099.47
2022-09-06T15:50:47.659Z,98096.66
2022-09-06T15:53:34.534Z,98098.19
2022-09-06T15:56:23.757Z,98092.59
2022-09-06T15:59:14.666Z,98095.28
2022-09-06T16:02:04.101Z,98091.06
2022-09-06T16:04:53.292Z,98088.69
2022-09-06T16:07:44.662Z,98089.22
2022-09-06T16:10:38.594Z,98090.84
2022-09-06T16:13:33.968Z,98092.69
2022-09-06T16:16:24.963Z,98087.53
2022-09-06T16:19:17.325Z,98095.34
2022-09-06T16:22:06.723Z,98080.59
2022-09-06T16:24:55.968Z,98079.78
2022-09-06T16:27:45.257Z,98078.78
2022-09-06T16:30:34.574Z,98078.00
2022-09-06T16:33:25.278Z,98081.91
2022-09-06T16:36:14.978Z,98076.41
2022-09-06T16:39:05.203Z,98084.38
2022-09-06T16:41:54.555Z,98084.59
2022-09-06T16:44:43.776Z,98079.31
2022-09-06T16:47:33.091Z,98087.19
2022-09-06T16:50:23.769Z,98090.59
2022-09-06T16:53:13.034Z,98078.09
2022-09-06T16:56:04.324Z,98081.22
2022-09-06T16:58:55.945Z,98079.97
2022-09-06T17:01:45.647Z,98082.53
2022-09-06T17:04:36.214Z,98084.28
2022-09-06T17:07:27.136Z,98081.63
2022-09-06T17:10:16.518Z,98083.31
2022-09-06T17:13:05.867Z,98081.97
2022-09-06T17:16:12.819Z,98080.41
2022-09-06T17:19:03.127Z,98078.72
2022-09-06T17:21:52.679Z,98074.38
2022-09-06T17:24:43.713Z,98078.72
2022-09-06T17:27:35.201Z,98077.56
2022-09-06T17:30:24.672Z,98074.25
2022-09-06T17:33:16.939Z,98071.75
2022-09-06T17:36:14.715Z,98076.00
2022-09-06T17:39:08.587Z,98069.38
2022-09-06T17:41:59.835Z,98085.63
2022-09-06T17:44:49.691Z,98082.47
2022-09-06T17:47:39.081Z,98082.34
2022-09-06T17:50:31.866Z,98082.19
2022-09-06T17:53:21.171Z,98082.22
2022-09-06T17:56:13.769Z,98077.94
2022-09-06T17:59:08.513Z,98092.97
2022-09-06T18:01:57.884Z,98079.66
2022-09-06T18:04:47.451Z,98093.63
2022-09-06T18:07:36.709Z,98090.13
2022-09-06T18:10:26.231Z,98103.47
2022-09-06T18:13:15.488Z,98101.81
2022-09-06T18:16:07.164Z,98112.69
2022-09-06T18:18:58.962Z,98118.97
2022-09-06T18:21:49.328Z,98116.50
2022-09-06T18:24:38.577Z,98111.81
2022-09-06T18:27:28.230Z,98108.75
2022-09-06T18:30:17.728Z,98119.31
2022-09-06T18:33:09.700Z,98121.41
2022-09-06T18:35:58.974Z,98121.31
2022-09-06T18:38:48.550Z,98121.56
2022-09-06T18:41:55.246Z,98123.53
2022-09-06T18:44:44.702Z,98131.53
2022-09-06T18:47:33.925Z,98132.88
2022-09-06T18:50:24.599Z,98130.13
2022-09-06T18:53:14.821Z,98135.53
2022-09-06T18:56:04.396Z,98128.47
2022-09-06T18:58:58.103Z,98139.75
2022-09-06T19:01:47.688Z,98135.34
2022-09-06T19:04:37.309Z,98140.97
2022-09-06T19:07:29.770Z,98138.47
2022-09-06T19:10:22.330Z,98136.53
2022-09-06T19:13:14.132Z,98139.78
2022-09-06T19:16:12.492Z,98133.25
2022-09-06T19:19:05.588Z,98130.50
2022-09-06T19:21:55.081Z,98130.00
2022-09-06T19:24:50.735Z,98128.66
2022-09-06T19:27:48.544Z,98121.53
2022-09-06T19:30:43.887Z,98121.22
2022-09-06T19:33:36.120Z,98119.47
2022-09-06T19:36:27.680Z,98128.13
2022-09-06T19:39:21.483Z,98132.38
2022-09-06T19:42:16.611Z,98139.41
2022-09-06T19:45:09.880Z,98140.75
2022-09-06T19:47:59.820Z,98138.53
2022-09-06T19:50:49.176Z,98142.31
2022-09-06T19:53:42.406Z,98139.66
2022-09-06T19:56:35.386Z,98145.31
2022-09-06T19:59:29.536Z,98139.38
2022-09-06T20:02:19.517Z,98134.25
2022-09-06T20:05:18.261Z,98136.38
2022-09-06T20:08:07.818Z,98127.72
2022-09-06T20:11:00.402Z,98119.91
2022-09-06T20:13:49.642Z,98125.09
2022-09-06T20:16:43.156Z,98127.84
2022-09-06T20:19:32.598Z,98119.78
2022-09-06T20:22:22.014Z,98106.56
2022-09-06T20:25:14.345Z,98108.50
2022-09-06T20:28:05.019Z,98109.75
2022-09-06T20:30:54.794Z,98113.28
2022-09-06T20:33:52.991Z,98099.03
2022-09-06T20:36:42.482Z,98101.53
2022-09-06T20:39:34.019Z,98103.44
2022-09-06T20:42:23.461Z,98101.78
2022-09-06T20:45:12.890Z,98101.22
2022-09-06T20:48:02.547Z,98092.94
2022-09-06T20:51:04.985Z,98093.78
2022-09-06T20:53:57.021Z,98093.59
2022-09-06T20:56:46.388Z,98091.97
2022-09-06T20:59:35.931Z,98090.94
2022-09-06T21:02:25.347Z,98096.31
2022-09-06T21:05:15.006Z,98097.16
2022-09-06T21:08:05.811Z,98100.66
2022-09-06T21:11:00.876Z,98103.59
2022-09-06T21:13:51.433Z,98103.56
2022-09-06T21:16:41.668Z,98107.94
2022-09-06T21:19:31.253Z,98117.25
2022-09-06T21:22:20.610Z,98116.22
2022-09-06T21:25:12.277Z,98123.25
2022-09-06T21:28:01.669Z,98130.50
2022-09-06T21:31:03.452Z,98127.81
2022-09-06T21:33:55.491Z,98140.19
2022-09-06T21:36:44.956Z,98134.41
2022-09-06T21:39:34.413Z,98134.41
2022-09-06T21:42:31.233Z,98137.28
2022-09-06T21:45:20.474Z,98138.09
2022-09-06T21:48:09.772Z,98139.75
2022-09-06T21:50:59.453Z,98142.22
2022-09-06T21:53:51.492Z,98148.22
2022-09-06T21:56:41.915Z,98145.06
2022-09-06T21:59:32.691Z,98157.06
2022-09-06T22:02:23.698Z,98161.38
2022-09-06T22:05:12.984Z,98153.28
2022-09-06T22:08:02.864Z,98155.75
2022-09-06T22:10:52.440Z,98147.88
2022-09-06T22:13:42.387Z,98151.19
2022-09-06T22:16:35.257Z,98159.84
2022-09-06T22:19:24.830Z,98149.50
2022-09-06T22:22:14.413Z,98155.28
2022-09-06T22:25:03.621Z,98144.94
2022-09-06T22:27:52.885Z,98156.06
2022-09-06T22:30:42.819Z,98160.19
2022-09-06T22:33:33.554Z,98156.22
2022-09-06T22:36:24.179Z,98152.94
2022-09-06T22:39:13.635Z,98154.34
2022-09-06T22:42:02.912Z,98153.09
2022-09-06T22:44:52.999Z,98153.88
2022-09-06T22:47:42.233Z,98165.00
2022-09-06T22:50:32.843Z,98166.88
2022-09-06T22:53:22.072Z,98161.91
2022-09-06T22:56:11.295Z,98152.75
2022-09-06T22:59:01.257Z,98150.50
2022-09-06T23:01:50.485Z,98144.69
2022-09-06T23:04:39.790Z,98151.50
2022-09-06T23:07:30.490Z,98140.13
2022-09-06T23:10:19.977Z,98142.53
2022-09-06T23:13:10.220Z,98139.06
2022-09-06T23:16:05.262Z,98133.41
2022-09-06T23:18:55.291Z,98130.09
2022-09-06T23:21:44.532Z,98121.81
2022-09-06T23:24:35.125Z,98129.22
2022-09-06T23:27:24.370Z,98127.94
2022-09-06T23:30:13.678Z,98126.88
2022-09-06T23:33:02.883Z,98114.31
2022-09-06T23:35:55.685Z,98117.38
2022-09-06T23:38:45.291Z,98120.19
2022-09-06T23:41:36.278Z,98120.19
2022-09-06T23:44:25.651Z,98112.53
2022-09-06T23:47:14.949Z,98113.56
2022-09-06T23:50:04.223Z,98109.25
2022-09-06T23:52:53.483Z,98104.66
2022-09-06T23:55:43.413Z,98098.00
2022-09-06T23:58:34.244Z,98089.34
